Time;durP1;ratioP1;P1;durP2;ratioP2;P2;SDS_P1;SDS_P2;PMS_P1;PMS_P2;Temp;Humidity;BMP_temperature;BMP_pressure;BME280_temperature;BME280_humidity;BME280_pressure;Samples;Min_cycle;Max_cycle;Signal;HPM_P1;HPM_P2
2020/12/20 00:01:25;;;;;;;10.47;9.37;;;;;;;-0.44;100.00;98597.84;5008500;28;20844;-70
2020/12/20 00:03:53;;;;;;;8.63;7.80;;;;;;;-0.41;100.00;98593.41;5000653;28;20329;-70
2020/12/20 00:06:20;;;;;;;9.73;8.83;;;;;;;-0.51;100.00;98590.44;5008003;28;20671;-71
2020/12/20 00:08:48;;;;;;;9.40;8.47;;;;;;;-0.43;100.00;98593.50;4956977;28;20233;-70
2020/12/20 00:11:15;;;;;;;9.60;8.70;;;;;;;-0.38;100.00;98606.25;5008662;28;20208;-71
2020/12/20 00:13:42;;;;;;;8.93;8.13;;;;;;;-0.35;100.00;98606.94;5002992;28;20212;-70
2020/12/20 00:16:09;;;;;;;8.63;7.83;;;;;;;-0.42;100.00;98602.97;5004633;28;21003;-70
2020/12/20 00:18:37;;;;;;;9.33;8.53;;;;;;;-0.41;100.00;98602.06;5003069;28;20475;-70
2020/12/20 00:21:04;;;;;;;9.27;8.37;;;;;;;-0.40;100.00;98605.50;4999608;28;20335;-71
2020/12/20 00:23:31;;;;;;;9.07;8.27;;;;;;;-0.49;100.00;98609.44;4989424;28;20447;-70
2020/12/20 00:25:58;;;;;;;10.23;9.13;;;;;;;-0.48;100.00;98603.31;4963562;28;20954;-69
2020/12/20 00:28:25;;;;;;;10.03;8.97;;;;;;;-0.51;100.00;98596.47;5009990;28;20240;-69
2020/12/20 00:30:52;;;;;;;9.07;8.17;;;;;;;-0.55;100.00;98600.16;5001718;28;20356;-70
2020/12/20 00:33:19;;;;;;;9.90;8.70;;;;;;;-0.60;100.00;98597.78;5007239;28;20208;-70
2020/12/20 00:35:47;;;;;;;9.43;8.53;;;;;;;-0.46;100.00;98591.03;4998921;28;20369;-70
2020/12/20 00:38:14;;;;;;;9.83;8.90;;;;;;;-0.59;100.00;98590.84;4992501;28;20723;-70
2020/12/20 00:40:41;;;;;;;11.60;10.50;;;;;;;-0.66;100.00;98582.50;4982234;28;20208;-71
2020/12/20 00:43:08;;;;;;;9.43;8.53;;;;;;;-0.52;100.00;98579.19;4999020;28;20232;-70
2020/12/20 00:45:35;;;;;;;10.43;9.40;;;;;;;-0.62;100.00;98580.59;5004925;28;20239;-70
2020/12/20 00:48:02;;;;;;;11.03;9.93;;;;;;;-0.78;100.00;98572.72;5002917;28;20760;-70
2020/12/20 00:50:29;;;;;;;9.90;8.90;;;;;;;-0.80;100.00;98575.38;5000669;28;20538;-71
2020/12/20 00:52:57;;;;;;;9.77;8.83;;;;;;;-0.76;100.00;98571.72;4987195;28;23127;-69
2020/12/20 00:55:25;;;;;;;10.70;9.70;;;;;;;-0.77;100.00;98569.19;5013343;28;20225;-70
2020/12/20 00:57:52;;;;;;;10.27;9.37;;;;;;;-0.73;100.00;98574.16;4969022;28;20232;-70
2020/12/20 01:00:19;;;;;;;10.27;9.27;;;;;;;-0.82;100.00;98573.78;5007814;28;20216;-70
2020/12/20 01:02:46;;;;;;;11.87;9.13;;;;;;;-0.80;100.00;98580.59;4999839;28;20854;-70
2020/12/20 01:05:13;;;;;;;10.37;9.37;;;;;;;-0.69;100.00;98577.44;5004447;28;20440;-70
2020/12/20 01:07:40;;;;;;;10.13;9.00;;;;;;;-0.76;100.00;98574.34;4992791;28;20728;-70
2020/12/20 01:10:08;;;;;;;9.97;9.07;;;;;;;-0.74;100.00;98576.84;4999025;28;20296;-70
2020/12/20 01:12:35;;;;;;;12.30;10.47;;;;;;;-0.77;100.00;98577.00;4988298;28;20205;-70
2020/12/20 01:15:03;;;;;;;8.97;8.10;;;;;;;-0.74;100.00;98574.25;4987548;28;20220;-70
2020/12/20 01:17:30;;;;;;;9.10;8.30;;;;;;;-0.78;100.00;98580.53;5009000;28;20232;-70
2020/12/20 01:19:57;;;;;;;10.97;9.93;;;;;;;-0.73;100.00;98583.72;5006695;28;20714;-69
2020/12/20 01:22:24;;;;;;;9.67;8.67;;;;;;;-0.77;100.00;98583.03;5010350;28;20232;-70
2020/12/20 01:24:51;;;;;;;9.77;8.87;;;;;;;-0.75;100.00;98576.00;4992534;28;20486;-69
2020/12/20 01:27:19;;;;;;;10.77;9.67;;;;;;;-0.71;100.00;98578.47;5004430;28;20236;-70
2020/12/20 01:29:46;;;;;;;10.20;9.20;;;;;;;-0.80;100.00;98577.97;4968734;28;20453;-70
2020/12/20 01:32:16;;;;;;;12.00;10.07;;;;;;;-0.85;100.00;98585.19;5009960;28;20450;-70
2020/12/20 01:34:44;;;;;;;11.97;9.80;;;;;;;-0.56;100.00;98589.84;5004066;28;20248;-70
2020/12/20 01:37:11;;;;;;;11.43;10.23;;;;;;;-0.37;100.00;98584.53;5011344;28;20462;-70
2020/12/20 01:39:38;;;;;;;10.73;9.63;;;;;;;-0.32;100.00;98590.34;5001581;28;20211;-70
2020/12/20 01:42:05;;;;;;;12.27;10.17;;;;;;;-0.31;100.00;98592.84;4997321;28;20628;-70
2020/12/20 01:44:33;;;;;;;10.30;9.30;;;;;;;-0.44;100.00;98590.03;4968426;28;20443;-71
2020/12/20 01:47:01;;;;;;;11.00;9.90;;;;;;;-0.52;100.00;98583.56;5004293;28;20200;-71
2020/12/20 01:49:28;;;;;;;11.07;9.97;;;;;;;-0.57;100.00;98577.72;5009617;28;20201;-72
2020/12/20 01:51:55;;;;;;;11.60;10.03;;;;;;;-0.50;100.00;98573.91;5004329;28;20949;-71
2020/12/20 01:54:22;;;;;;;11.30;10.07;;;;;;;-0.65;100.00;98572.94;5007786;28;20205;-69
2020/12/20 01:56:49;;;;;;;11.63;9.87;;;;;;;-0.61;100.00;98567.47;4986738;28;20564;-71
2020/12/20 01:59:16;;;;;;;11.67;10.57;;;;;;;-0.64;100.00;98566.81;4967728;28;20830;-71
2020/12/20 02:01:44;;;;;;;11.60;9.10;;;;;;;-0.55;100.00;98565.50;5006461;28;20487;-70
2020/12/20 02:04:11;;;;;;;12.13;10.07;;;;;;;-0.60;100.00;98566.53;5002987;28;20220;-71
2020/12/20 02:06:39;;;;;;;10.97;9.70;;;;;;;-0.64;100.00;98559.81;5008412;28;20204;-71
2020/12/20 02:09:06;;;;;;;11.70;9.63;;;;;;;-0.67;100.00;98559.16;5003933;28;20783;-72
2020/12/20 02:11:33;;;;;;;10.60;9.60;;;;;;;-0.73;100.00;98562.91;4993661;28;20444;-71
2020/12/20 02:14:00;;;;;;;10.03;9.10;;;;;;;-0.67;100.00;98569.56;4968841;28;20787;-70
2020/12/20 02:16:27;;;;;;;9.77;8.73;;;;;;;-0.67;100.00;98569.56;4986699;28;20204;-70
2020/12/20 02:18:55;;;;;;;11.07;9.97;;;;;;;-0.66;100.00;98571.25;5008908;28;20235;-71
2020/12/20 02:21:23;;;;;;;11.63;10.43;;;;;;;-0.82;100.00;98569.41;5006306;28;20205;-71
2020/12/20 02:23:51;;;;;;;11.47;10.10;;;;;;;-0.86;100.00;98577.47;5005608;28;20212;-71
2020/12/20 02:26:19;;;;;;;12.17;10.97;;;;;;;-0.87;100.00;98571.41;4987906;28;20209;-71
2020/12/20 02:28:48;;;;;;;10.60;9.50;;;;;;;-0.89;100.00;98570.66;5006368;28;20394;-70
2020/12/20 02:31:15;;;;;;;10.77;9.63;;;;;;;-0.69;100.00;98572.25;4969294;28;20216;-72
2020/12/20 02:33:42;;;;;;;9.57;8.60;;;;;;;-0.84;100.00;98568.66;5008497;28;20215;-70
2020/12/20 02:36:10;;;;;;;10.87;9.60;;;;;;;-0.82;100.00;98564.22;5010878;28;20565;-71
2020/12/20 02:38:38;;;;;;;10.97;9.87;;;;;;;-0.75;100.00;98572.56;5000286;28;20896;-70
2020/12/20 02:41:05;;;;;;;10.40;9.30;;;;;;;-0.81;100.00;98570.28;4990533;28;20847;-70
2020/12/20 02:43:32;;;;;;;11.93;10.07;;;;;;;-0.80;100.00;98559.75;5000251;28;20428;-70
2020/12/20 02:46:00;;;;;;;11.30;10.20;;;;;;;-0.70;100.00;98562.75;4969803;28;20299;-71
2020/12/20 02:48:27;;;;;;;10.17;9.23;;;;;;;-0.72;100.00;98561.97;5001364;28;20463;-70
2020/12/20 02:50:54;;;;;;;11.37;10.17;;;;;;;-0.76;100.00;98563.06;5010679;28;20771;-70
2020/12/20 02:53:21;;;;;;;9.50;8.53;;;;;;;-0.73;100.00;98570.72;4986803;28;20293;-71
2020/12/20 02:55:49;;;;;;;10.63;9.37;;;;;;;-0.88;100.00;98561.91;5001314;28;20534;-71
2020/12/20 02:58:16;;;;;;;10.77;9.70;;;;;;;-0.85;100.00;98571.34;4991394;28;20724;-71
2020/12/20 03:00:44;;;;;;;10.77;9.53;;;;;;;-0.88;100.00;98560.19;4966265;28;20231;-70
2020/12/20 03:03:11;;;;;;;10.90;9.77;;;;;;;-0.83;100.00;98569.50;5003009;28;20230;-71
2020/12/20 03:05:38;;;;;;;11.33;10.23;;;;;;;-0.88;100.00;98567.13;5003347;28;20599;-70
2020/12/20 03:08:05;;;;;;;10.03;8.47;;;;;;;-0.88;100.00;98570.59;5006303;28;20676;-71
2020/12/20 03:10:32;;;;;;;10.43;9.33;;;;;;;-0.94;100.00;98568.28;5006608;28;20959;-70
2020/12/20 03:13:00;;;;;;;9.90;8.90;;;;;;;-0.84;100.00;98554.81;4992543;28;20200;-70
2020/12/20 03:15:27;;;;;;;10.50;9.40;;;;;;;-0.92;100.00;98557.78;4962273;28;21345;-71
2020/12/20 03:17:54;;;;;;;11.40;10.20;;;;;;;-0.84;100.00;98554.81;5009966;28;20819;-70
2020/12/20 03:20:21;;;;;;;10.37;9.27;;;;;;;-0.85;100.00;98550.53;5005252;28;21015;-71
2020/12/20 03:22:48;;;;;;;10.47;9.37;;;;;;;-0.88;100.00;98546.31;5003900;28;20602;-70
2020/12/20 03:25:15;;;;;;;10.53;9.53;;;;;;;-0.80;100.00;98556.34;5005347;28;20458;-71
2020/12/20 03:27:51;;;;;;;11.47;9.57;;;;;;;-0.85;100.00;98547.94;4989760;28;20483;-71
2020/12/20 03:30:19;;;;;;;12.03;10.00;;;;;;;-0.80;100.00;98551.94;5003612;28;20566;-71
2020/12/20 03:32:47;;;;;;;11.13;9.20;;;;;;;-0.86;100.00;98554.06;4971574;28;20765;-70
2020/12/20 03:35:14;;;;;;;11.20;10.00;;;;;;;-0.85;100.00;98556.56;4997710;28;20456;-71
2020/12/20 03:37:48;;;;;;;11.23;10.10;;;;;;;-0.76;100.00;98550.91;5009473;28;20709;-71
2020/12/20 03:40:15;;;;;;;10.53;9.43;;;;;;;-0.73;100.00;98549.88;5001100;28;20200;-71
2020/12/20 03:42:42;;;;;;;9.10;8.27;;;;;;;-0.76;100.00;98556.09;4991673;28;20479;-71
2020/12/20 03:45:09;;;;;;;10.80;9.70;;;;;;;-0.74;100.00;98563.81;5006722;28;20215;-70
2020/12/20 03:47:37;;;;;;;9.97;8.93;;;;;;;-0.77;100.00;98548.38;4961776;28;20555;-71
2020/12/20 03:50:04;;;;;;;9.93;8.93;;;;;;;-0.84;100.00;98553.03;5004280;28;20735;-71
2020/12/20 03:52:31;;;;;;;11.10;10.00;;;;;;;-0.80;100.00;98554.56;5006731;28;21229;-72
2020/12/20 03:54:58;;;;;;;10.43;9.43;;;;;;;-0.75;100.00;98560.41;5003763;28;20448;-70
2020/12/20 03:57:25;;;;;;;9.50;8.63;;;;;;;-0.69;100.00;98566.22;4991336;28;21048;-71
2020/12/20 03:59:52;;;;;;;10.63;9.53;;;;;;;-0.73;100.00;98560.31;5006208;28;20201;-69
2020/12/20 04:02:20;;;;;;;11.90;10.57;;;;;;;-0.73;100.00;98560.31;4974908;28;20248;-71
2020/12/20 04:04:48;;;;;;;10.97;9.77;;;;;;;-0.74;100.00;98563.81;5006073;28;20205;-71
2020/12/20 04:07:15;;;;;;;10.80;9.70;;;;;;;-0.69;100.00;98569.63;5011157;28;20227;-71
2020/12/20 04:09:42;;;;;;;11.57;10.37;;;;;;;-0.76;100.00;98558.72;5000080;28;20457;-70
2020/12/20 04:12:10;;;;;;;11.53;10.10;;;;;;;-0.67;100.00;98553.94;5011213;28;20663;-70
2020/12/20 04:14:37;;;;;;;11.57;10.37;;;;;;;-0.60;100.00;98550.94;4986874;28;20733;-70
2020/12/20 04:17:04;;;;;;;10.43;9.20;;;;;;;-0.63;100.00;98551.09;5014327;28;20223;-71
2020/12/20 04:19:31;;;;;;;11.80;10.60;;;;;;;-0.74;100.00;98554.28;4962018;28;21012;-70
2020/12/20 04:21:59;;;;;;;10.13;9.17;;;;;;;-0.69;100.00;98550.59;5009110;28;20839;-72
2020/12/20 04:24:26;;;;;;;10.03;9.03;;;;;;;-0.70;100.00;98549.72;4999821;28;20744;-71
2020/12/20 04:26:53;;;;;;;9.43;8.43;;;;;;;-0.61;100.00;98543.22;5002019;28;20208;-71
2020/12/20 04:29:20;;;;;;;11.80;10.60;;;;;;;-0.62;100.00;98542.34;4991757;28;20466;-71
2020/12/20 04:31:47;;;;;;;11.60;10.37;;;;;;;-0.60;100.00;98550.09;5000775;28;20371;-72
2020/12/20 04:34:14;;;;;;;10.20;9.17;;;;;;;-0.71;100.00;98547.22;4981097;28;20212;-71
2020/12/20 04:36:41;;;;;;;10.93;9.87;;;;;;;-0.64;100.00;98554.63;4993190;28;20640;-70
2020/12/20 04:39:09;;;;;;;12.17;10.13;;;;;;;-0.56;100.00;98550.78;5011184;28;20493;-70
2020/12/20 04:41:36;;;;;;;10.83;9.57;;;;;;;-0.63;100.00;98561.50;4999507;28;20598;-70
2020/12/20 04:44:03;;;;;;;13.53;10.57;;;;;;;-0.67;100.00;98556.56;5011273;28;20204;-70
2020/12/20 04:46:31;;;;;;;11.07;9.97;;;;;;;-0.66;100.00;98560.84;4992917;28;20458;-69
2020/12/20 04:49:00;;;;;;;11.53;10.33;;;;;;;-0.70;100.00;98556.72;5008588;28;20467;-71
2020/12/20 04:51:29;;;;;;;11.63;9.93;;;;;;;-0.65;100.00;98554.72;4966785;28;20541;-69
2020/12/20 04:53:58;;;;;;;11.50;10.37;;;;;;;-0.81;100.00;98549.44;5003496;28;20835;-70
2020/12/20 04:56:27;;;;;;;12.13;10.70;;;;;;;-0.63;100.00;98555.47;5008091;28;20716;-69
2020/12/20 04:58:55;;;;;;;11.13;10.03;;;;;;;-0.72;100.00;98551.56;5009204;28;20322;-69
2020/12/20 05:01:23;;;;;;;12.53;11.20;;;;;;;-0.62;100.00;98549.34;4992197;28;20598;-70
2020/12/20 05:03:50;;;;;;;12.20;10.73;;;;;;;-0.71;100.00;98553.25;5008554;28;20384;-70
2020/12/20 05:06:18;;;;;;;12.07;10.27;;;;;;;-0.72;100.00;98546.38;4961485;28;20268;-71
2020/12/20 05:08:46;;;;;;;10.97;9.87;;;;;;;-0.57;100.00;98542.13;5011258;28;20238;-69
2020/12/20 05:11:35;;;;;;;11.33;10.13;;;;;;;-0.59;100.00;98541.38;4985312;28;20561;-70
2020/12/20 05:14:03;;;;;;;13.13;10.80;;;;;;;-0.55;100.00;98545.50;5006910;28;21290;-69
2020/12/20 05:16:32;;;;;;;12.40;11.10;;;;;;;-0.68;100.00;98553.09;4981060;28;20874;-70
2020/12/20 05:18:59;;;;;;;11.80;10.60;;;;;;;-0.65;100.00;98546.91;5006822;28;20255;-70
2020/12/20 05:21:28;;;;;;;11.47;10.27;;;;;;;-0.57;100.00;98543.88;4967262;28;20240;-70
2020/12/20 05:23:55;;;;;;;12.50;10.33;;;;;;;-0.52;100.00;98545.34;4996276;28;20491;-71
2020/12/20 05:26:26;;;;;;;10.57;9.57;;;;;;;-0.76;100.00;98543.09;5001237;28;20480;-69
2020/12/20 05:29:06;;;;;;;11.97;10.47;;;;;;;-0.61;100.00;98551.03;4999629;28;20688;-71
2020/12/20 05:31:34;;;;;;;11.30;10.03;;;;;;;-0.55;100.00;98550.69;5011467;28;20592;-73
2020/12/20 05:34:01;;;;;;;14.10;11.63;;;;;;;-0.57;100.00;98544.72;4968010;28;20796;-69
2020/12/20 05:36:29;;;;;;;14.03;10.47;;;;;;;-0.61;100.00;98546.63;5008067;28;20467;-71
2020/12/20 05:39:11;;;;;;;11.40;10.30;;;;;;;-0.56;100.00;98550.78;4970189;28;20673;-70
2020/12/20 05:41:38;;;;;;;12.20;10.70;;;;;;;-0.37;100.00;98553.28;4998956;28;20272;-69
2020/12/20 05:44:16;;;;;;;11.03;9.93;;;;;;;-0.51;100.00;98546.19;4992980;28;21202;-70
2020/12/20 05:46:44;;;;;;;13.13;10.93;;;;;;;-0.54;100.00;98546.34;4999995;28;20450;-70
2020/12/20 05:49:16;;;;;;;11.57;10.23;;;;;;;-0.51;100.00;98547.00;4983056;28;20224;-69
2020/12/20 05:52:05;;;;;;;12.17;10.70;;;;;;;-0.42;100.00;98553.50;4996112;28;20216;-70
2020/12/20 05:54:34;;;;;;;13.10;11.50;;;;;;;-0.45;100.00;98553.66;4951751;28;20848;-70
2020/12/20 05:57:12;;;;;;;11.27;10.10;;;;;;;-0.40;100.00;98554.25;4996945;28;20816;-69
2020/12/20 05:59:40;;;;;;;12.03;10.53;;;;;;;-0.48;100.00;98549.44;4998902;28;20208;-70
2020/12/20 06:02:08;;;;;;;12.93;11.63;;;;;;;-0.48;100.00;98546.03;4992806;28;20232;-69
2020/12/20 06:04:36;;;;;;;12.87;11.40;;;;;;;-0.33;100.00;98546.97;4986554;28;20209;-70
2020/12/20 06:07:04;;;;;;;12.57;11.27;;;;;;;-0.60;100.00;98550.09;4998715;28;20463;-70
2020/12/20 06:09:31;;;;;;;13.30;11.60;;;;;;;-0.52;100.00;98545.34;4964836;28;20238;-70
2020/12/20 06:12:00;;;;;;;13.23;11.83;;;;;;;-0.61;100.00;98549.25;5004500;28;20718;-70
2020/12/20 06:14:28;;;;;;;12.63;11.17;;;;;;;-0.72;100.00;98556.78;5004293;28;20943;-71
2020/12/20 06:17:16;;;;;;;13.43;12.03;;;;;;;-0.67;100.00;98559.16;5001972;28;20520;-69
2020/12/20 06:19:55;;;;;;;12.67;11.13;;;;;;;-0.60;100.00;98547.50;4982650;28;20276;-70
2020/12/20 06:22:24;;;;;;;15.30;12.27;;;;;;;-0.62;100.00;98550.16;5001965;28;20228;-72
2020/12/20 06:24:52;;;;;;;16.30;13.37;;;;;;;-0.57;100.00;98549.94;4946231;28;20327;-69
2020/12/20 06:27:21;;;;;;;13.60;12.13;;;;;;;-0.57;100.00;98551.69;5001194;28;20506;-70
2020/12/20 06:29:50;;;;;;;14.47;12.83;;;;;;;-0.67;100.00;98549.56;4996799;28;20431;-71
2020/12/20 06:32:29;;;;;;;15.43;13.50;;;;;;;-0.62;100.00;98539.75;5006131;28;20434;-71
2020/12/20 06:35:00;;;;;;;15.20;13.60;;;;;;;-0.60;100.00;98544.91;4980569;28;20891;-70
2020/12/20 06:37:27;;;;;;;14.07;12.57;;;;;;;-0.62;100.00;98542.34;5004905;28;20250;-73
2020/12/20 06:39:54;;;;;;;13.97;12.47;;;;;;;-0.61;100.00;98530.19;4965385;28;20731;-73
2020/12/20 06:42:39;;;;;;;15.83;14.17;;;;;;;-0.46;100.00;98539.78;4980538;28;20251;-72
2020/12/20 06:45:21;;;;;;;15.43;13.43;;;;;;;-0.45;100.00;98548.47;5000064;28;20315;-70
2020/12/20 06:47:50;;;;;;;16.20;12.90;;;;;;;-0.39;100.00;98552.47;4979525;28;23619;-71
2020/12/20 06:50:42;;;;;;;14.23;12.50;;;;;;;-0.37;100.00;98533.25;4998605;28;20440;-72
2020/12/20 06:53:09;;;;;;;15.77;13.33;;;;;;;-0.61;100.00;98533.63;5003183;28;20773;-70
2020/12/20 06:55:36;;;;;;;14.77;13.07;;;;;;;-0.60;100.00;98534.47;4963119;28;20572;-70
2020/12/20 06:58:14;;;;;;;16.47;13.23;;;;;;;-0.65;100.00;98528.69;4984065;28;20316;-70
2020/12/20 07:00:46;;;;;;;14.50;12.80;;;;;;;-0.72;100.00;98535.94;4994781;28;20473;-71
2020/12/20 07:03:35;;;;;;;14.47;12.83;;;;;;;-0.51;100.00;98541.81;4998021;28;20613;-72
2020/12/20 07:06:17;;;;;;;15.17;12.97;;;;;;;-0.64;100.00;98533.78;4981376;28;20238;-70
2020/12/20 07:09:00;;;;;;;16.83;13.73;;;;;;;-0.52;100.00;98536.69;5000611;28;20893;-71
2020/12/20 07:11:28;;;;;;;19.37;15.43;;;;;;;-0.54;100.00;98543.75;4946749;28;20466;-71
2020/12/20 07:13:56;;;;;;;16.47;14.00;;;;;;;-0.58;100.00;98540.44;4999150;28;20662;-71
2020/12/20 07:16:24;;;;;;;18.73;14.50;;;;;;;-0.59;100.00;98544.78;4998016;28;20447;-71
2020/12/20 07:18:56;;;;;;;16.87;14.53;;;;;;;-0.50;100.00;98548.69;4982534;28;20469;-70
2020/12/20 07:21:56;;;;;;;16.30;14.60;;;;;;;-0.42;100.00;98557.84;4968138;28;20458;-71
2020/12/20 07:24:24;;;;;;;18.93;15.33;;;;;;;-0.40;100.00;98558.63;4993894;28;20557;-71
2020/12/20 07:26:53;;;;;;;28.03;25.23;;;;;;;-0.35;100.00;98559.25;4963590;28;20471;-70
2020/12/20 07:29:20;;;;;;;16.77;13.53;;;;;;;-0.30;100.00;98559.84;4985714;28;20462;-70
2020/12/20 07:31:53;;;;;;;17.27;15.20;;;;;;;-0.28;100.00;98568.41;5005800;28;20525;-70
2020/12/20 07:34:21;;;;;;;15.23;13.63;;;;;;;-0.22;100.00;98565.47;5002141;28;20455;-71
2020/12/20 07:36:48;;;;;;;15.67;13.40;;;;;;;-0.20;100.00;98554.94;4984729;28;20302;-71
2020/12/20 07:39:15;;;;;;;15.37;13.20;;;;;;;-0.35;100.00;98544.44;4999931;28;20204;-72
2020/12/20 07:41:43;;;;;;;14.70;13.13;;;;;;;-0.28;100.00;98546.72;4998199;28;20209;-70
2020/12/20 07:44:11;;;;;;;14.53;13.03;;;;;;;-0.34;100.00;98547.91;4953705;28;20229;-70
2020/12/20 07:46:39;;;;;;;15.17;13.57;;;;;;;-0.35;100.00;98541.84;4997467;28;20708;-70
2020/12/20 07:49:08;;;;;;;15.00;12.73;;;;;;;-0.31;100.00;98539.91;5000096;28;20960;-69
2020/12/20 07:51:36;;;;;;;16.87;13.97;;;;;;;-0.21;100.00;98564.56;4985564;28;20980;-69
2020/12/20 07:54:08;;;;;;;19.33;14.60;;;;;;;0.21;100.00;98575.34;4995347;28;20592;-68
2020/12/20 07:56:37;;;;;;;15.97;12.63;;;;;;;0.13;100.00;98585.34;4996500;28;20702;-70
2020/12/20 07:59:06;;;;;;;14.87;13.27;;;;;;;0.19;100.00;98582.41;4966075;28;20243;-70
2020/12/20 08:01:33;;;;;;;14.33;12.50;;;;;;;0.19;100.00;98577.19;5002851;28;20278;-69
2020/12/20 08:04:02;;;;;;;15.70;14.03;;;;;;;0.31;100.00;98582.66;5000506;28;20255;-71
2020/12/20 08:06:29;;;;;;;14.00;12.60;;;;;;;0.39;100.00;98576.09;5000600;28;20295;-69
2020/12/20 08:09:04;;;;;;;24.07;18.77;;;;;;;0.23;100.00;98568.28;4990702;28;21018;-70
2020/12/20 08:11:32;;;;;;;33.17;28.37;;;;;;;0.18;100.00;98569.47;5005543;28;20200;-71
2020/12/20 08:14:00;;;;;;;20.40;18.50;;;;;;;0.20;100.00;98560.63;4947579;28;20641;-69
2020/12/20 08:16:28;;;;;;;19.37;17.37;;;;;;;0.07;100.00;98543.97;5006799;28;20623;-70
2020/12/20 08:18:58;;;;;;;16.20;14.50;;;;;;;-0.07;100.00;98536.91;4986412;28;20381;-69
2020/12/20 08:21:39;;;;;;;15.17;13.30;;;;;;;0.11;100.00;98561.97;5000454;28;20732;-71
2020/12/20 08:24:08;;;;;;;14.07;12.40;;;;;;;0.19;100.00;98582.41;4986834;28;20620;-69
2020/12/20 08:26:36;;;;;;;15.27;13.27;;;;;;;0.28;100.00;98576.69;5003381;28;20209;-70
2020/12/20 08:29:03;;;;;;;14.70;13.03;;;;;;;0.41;100.00;98589.91;4998806;28;20228;-71
2020/12/20 08:31:42;;;;;;;12.87;11.57;;;;;;;0.28;100.00;98589.72;4965614;28;20211;-70
2020/12/20 08:34:17;;;;;;;12.90;11.60;;;;;;;0.55;100.00;98586.50;4986929;28;20343;-71
2020/12/20 08:36:46;;;;;;;14.20;12.67;;;;;;;0.59;100.00;98587.19;4999784;28;20204;-71
2020/12/20 08:39:14;;;;;;;14.07;11.97;;;;;;;0.46;100.00;98596.63;4988202;28;20744;-70
2020/12/20 08:41:42;;;;;;;13.53;12.13;;;;;;;0.53;100.00;98597.97;4998412;28;20212;-70
2020/12/20 08:44:11;;;;;;;13.80;12.30;;;;;;;0.61;100.00;98603.56;4998496;28;20767;-72
2020/12/20 08:46:40;;;;;;;13.67;11.73;;;;;;;0.63;100.00;98604.34;4969949;28;20216;-70
2020/12/20 08:49:18;;;;;;;13.63;11.93;;;;;;;0.55;100.00;98593.50;4982552;28;20343;-70
2020/12/20 08:51:46;;;;;;;14.20;12.23;;;;;;;0.64;100.00;98586.94;5000268;28;20205;-72
2020/12/20 08:54:28;;;;;;;13.63;12.23;;;;;;;0.52;100.00;98586.66;4986275;28;20694;-70
2020/12/20 08:56:57;;;;;;;12.30;11.07;;;;;;;0.51;100.00;98590.19;4999366;28;20208;-69
2020/12/20 08:59:31;;;;;;;14.53;13.00;;;;;;;0.46;100.00;98602.66;5001835;28;20217;-73
2020/12/20 09:02:00;;;;;;;14.70;12.87;;;;;;;0.72;100.00;98602.97;4951414;28;20403;-71
2020/12/20 09:04:28;;;;;;;13.53;12.17;;;;;;;0.43;100.00;98592.41;5008489;28;20229;-71
2020/12/20 09:07:16;;;;;;;14.07;12.43;;;;;;;0.54;100.00;98587.41;4988392;28;20244;-74
2020/12/20 09:09:44;;;;;;;14.50;12.37;;;;;;;0.40;100.00;98587.34;4978082;28;20218;-71
2020/12/20 09:12:13;;;;;;;16.17;14.37;;;;;;;0.34;100.00;98592.91;4992530;28;20213;-71
2020/12/20 09:14:40;;;;;;;15.70;13.47;;;;;;;0.52;100.00;98597.09;4993131;28;20213;-72
2020/12/20 09:17:07;;;;;;;16.37;13.53;;;;;;;0.70;100.00;98613.50;4964113;28;21024;-72
2020/12/20 09:19:34;;;;;;;14.43;12.93;;;;;;;0.79;99.89;98604.31;4995248;28;20685;-72
2020/12/20 09:22:01;;;;;;;15.13;13.13;;;;;;;0.68;100.00;98607.53;4998525;28;20426;-73
2020/12/20 09:24:47;;;;;;;23.27;14.97;;;;;;;1.03;100.00;98631.69;4975553;28;20242;-71
2020/12/20 09:27:14;;;;;;;14.23;12.73;;;;;;;1.15;100.00;98634.47;4994104;28;20816;-73
2020/12/20 09:29:51;;;;;;;16.73;13.77;;;;;;;1.17;98.97;98623.09;5002963;28;20212;-71
2020/12/20 09:32:18;;;;;;;14.40;12.37;;;;;;;1.32;97.54;98622.19;4966187;28;20454;-71
2020/12/20 09:34:45;;;;;;;16.20;14.57;;;;;;;1.07;99.30;98613.19;4996635;28;20209;-71
2020/12/20 09:37:12;;;;;;;13.53;12.13;;;;;;;1.21;97.55;98616.75;5001911;28;20732;-71
2020/12/20 09:39:56;;;;;;;14.77;12.83;;;;;;;1.05;99.27;98607.22;4990660;28;20212;-71
2020/12/20 09:42:24;;;;;;;14.90;13.30;;;;;;;1.06;99.26;98598.44;5000636;28;20212;-71
2020/12/20 09:44:51;;;;;;;13.53;12.00;;;;;;;1.23;98.10;98609.66;4998427;28;20739;-71
2020/12/20 09:47:18;;;;;;;13.80;12.33;;;;;;;1.27;98.04;98608.56;4969138;28;20570;-71
2020/12/20 09:49:45;;;;;;;15.07;12.90;;;;;;;1.24;97.71;98601.75;5000677;28;21008;-72
2020/12/20 09:52:12;;;;;;;15.63;13.37;;;;;;;1.45;97.09;98617.06;4995926;28;20711;-71
2020/12/20 09:55:00;;;;;;;13.13;11.77;;;;;;;1.33;96.40;98599.53;4966390;28;20989;-71
2020/12/20 09:57:27;;;;;;;13.27;12.03;;;;;;;1.23;97.07;98594.84;4986492;28;20239;-71
2020/12/20 09:59:54;;;;;;;13.93;12.53;;;;;;;1.32;96.95;98605.69;4999200;28;20200;-71
2020/12/20 10:02:21;;;;;;;13.17;11.87;;;;;;;1.48;96.63;98596.00;5000283;28;20211;-72
2020/12/20 10:04:48;;;;;;;13.27;11.97;;;;;;;1.61;95.06;98590.88;4959365;28;20221;-72
2020/12/20 10:07:15;;;;;;;12.63;11.33;;;;;;;1.48;96.20;98595.16;4999772;28;20229;-72
2020/12/20 10:09:42;;;;;;;14.03;12.57;;;;;;;1.77;94.96;98592.59;4965178;28;20212;-71
2020/12/20 10:12:10;;;;;;;13.33;11.93;;;;;;;1.88;96.10;98597.97;4985827;28;20217;-71
2020/12/20 10:14:37;;;;;;;13.83;12.53;;;;;;;1.83;94.26;98594.81;4983171;28;20782;-71
2020/12/20 10:17:04;;;;;;;14.90;11.33;;;;;;;1.93;93.56;98588.09;4979935;28;20426;-71
2020/12/20 10:19:31;;;;;;;13.77;12.37;;;;;;;1.87;93.66;98585.84;4952306;28;20217;-68
2020/12/20 10:21:58;;;;;;;14.97;12.67;;;;;;;1.73;94.44;98578.84;4989742;28;20204;-70
2020/12/20 10:24:25;;;;;;;14.90;12.57;;;;;;;1.95;92.99;98573.13;4990107;28;20231;-72
2020/12/20 10:26:52;;;;;;;14.13;12.60;;;;;;;2.13;93.15;98565.09;4973440;28;20208;-71
2020/12/20 10:29:24;;;;;;;13.03;11.40;;;;;;;2.20;91.56;98568.16;5010985;28;20204;-71
2020/12/20 10:31:51;;;;;;;12.20;11.00;;;;;;;2.28;91.60;98571.16;4990954;28;20213;-70
2020/12/20 10:34:18;;;;;;;12.13;10.83;;;;;;;1.91;92.84;98571.66;4959863;28;20216;-70
2020/12/20 10:36:45;;;;;;;13.20;11.80;;;;;;;1.82;93.86;98565.22;5002195;28;20200;-70
2020/12/20 10:39:12;;;;;;;13.57;12.17;;;;;;;1.81;94.39;98570.53;4987608;28;20447;-72
2020/12/20 10:41:39;;;;;;;13.77;12.23;;;;;;;1.98;92.70;98578.19;4978817;28;20261;-70
2020/12/20 10:44:07;;;;;;;13.73;12.30;;;;;;;1.83;92.64;98579.97;4996005;28;20478;-69
2020/12/20 10:46:35;;;;;;;12.37;11.07;;;;;;;2.08;92.96;98567.13;4987407;28;20238;-71
2020/12/20 10:49:03;;;;;;;13.30;11.90;;;;;;;1.99;91.82;98569.41;5001561;28;20224;-71
2020/12/20 10:51:30;;;;;;;13.17;11.83;;;;;;;1.95;91.99;98569.69;4969661;28;20890;-70
2020/12/20 10:53:57;;;;;;;12.93;11.60;;;;;;;2.05;92.71;98567.34;4977677;28;20466;-70
2020/12/20 10:56:24;;;;;;;12.33;11.03;;;;;;;2.11;91.67;98566.97;4987135;28;20223;-70
2020/12/20 10:58:51;;;;;;;12.87;11.47;;;;;;;1.88;96.09;98571.84;4981172;28;20237;-68
2020/12/20 11:01:19;;;;;;;12.50;11.20;;;;;;;2.06;92.79;98561.16;4992949;28;20680;-69
2020/12/20 11:03:47;;;;;;;12.20;10.90;;;;;;;1.95;95.21;98556.63;4966712;28;20225;-68
2020/12/20 11:06:18;;;;;;;12.97;11.67;;;;;;;2.14;92.78;98561.56;4969017;28;20551;-72
2020/12/20 11:08:45;;;;;;;13.53;11.50;;;;;;;2.07;92.47;98555.84;4998457;28;20220;-71
2020/12/20 11:11:13;;;;;;;13.17;11.80;;;;;;;1.85;94.29;98566.81;4991069;28;20701;-70
2020/12/20 11:13:43;;;;;;;12.87;11.57;;;;;;;2.00;93.36;98560.63;4976389;28;20631;-71
2020/12/20 11:16:16;;;;;;;13.70;11.67;;;;;;;2.10;91.55;98553.03;4986084;28;20208;-71
2020/12/20 11:18:46;;;;;;;15.17;13.10;;;;;;;2.06;92.14;98546.34;4984740;28;20528;-70
2020/12/20 11:21:15;;;;;;;14.00;12.50;;;;;;;1.72;94.20;98549.28;4972392;28;20402;-71
2020/12/20 11:23:44;;;;;;;13.37;11.77;;;;;;;1.65;94.66;98550.56;4985441;28;20429;-72
2020/12/20 11:26:14;;;;;;;13.43;11.50;;;;;;;1.68;94.97;98546.94;5001264;28;20672;-71